ADDS METAR Data INFO
IDs: Format: Raw Decoded Include TAF

Data at: 0848 UTC 22 Feb 2018

K5A6 220835Z AUTO 25006KT 10SM -VCTSRA BKN010 OVC013 16/16 A3024 RMK AO2 LTG DSNT W P0002 T01630163
K5A6 220815Z AUTO 00000KT 10SM VCTS SCT007 OVC013 17/17 A3023 RMK AO2 LTG DSNT SW THRU NW P0002 T01700170
K5A6 220755Z AUTO 27003KT 10SM BKN007 OVC011 17/17 A3023 RMK AO2 LTG DSNT W THRU N P0001 T01670167
K5A6 220735Z AUTO 11003KT 10SM -RA BKN007 BKN014 OVC038 16/16 A3022 RMK AO2 LTG DSNT SW THRU NW P0001 T01620162
K5A6 220715Z AUTO 00000KT 10SM -RA SCT003 BKN007 OVC050 16/16 A3023 RMK AO2 LTG DSNT W AND NW T01560156
K5A6 220655Z AUTO 36006KT 10SM SCT003 BKN022 OVC047 15/15 A3023 RMK AO2 LTG DSNT ALQS P0001 T01500150
K5A6 220635Z AUTO 00000KT 10SM SCT024 BKN060 OVC075 15/15 A3022 RMK AO2 LTG DSNT SW AND W P0001 T01450145
K5A6 220615Z AUTO 00000KT 10SM BKN024 BKN060 OVC080 15/15 A3022 RMK AO2 LTG DSNT W AND NW P0001 T01450145
K5A6 220555Z AUTO 00000KT 10SM BKN003 OVC024 15/15 A3021 RMK AO2 LTG DSNT SW THRU N 60041 T01450145 10145 20136 402690136
K5A6 220535Z AUTO 00000KT 10SM OVC003 14/14 A3021 RMK AO2 LTG DSNT N AND W T01430143
K5A6 220515Z AUTO 00000KT 10SM OVC003 14/14 A3020 RMK AO2 LTG DSNT W T01410141
K5A6 220455Z AUTO 00000KT 10SM OVC003 14/14 A3020 RMK AO2 LTG DSNT W T01400140
K5A6 220435Z AUTO 00000KT 10SM OVC003 14/14 A3020 RMK AO2 LTG DSNT W AND NW T01380138
K5A6 220415Z AUTO 00000KT 10SM OVC005 14/14 A3021 RMK AO2 T01370137
K5A6 220355Z AUTO 08003KT 10SM BKN005 OVC033 14/14 A3022 RMK AO2 T01370137
K5A6 220035Z AUTO 03012KT 7SM +RA SCT048 BKN060 OVC090 14/14 A3020 RMK AO2 LTG DSNT NE P0013 T01400140
K5A6 220015Z AUTO 03008KT 7SM RA SCT010 BKN065 OVC075 14/14 A3023 RMK AO2 LTG DSNT NE AND S P0004 T01410141
K5A6 212355Z AUTO 34007KT 240V360 7SM +RA BKN008 OVC011 15/15 A3023 RMK AO2 LTG DSNT ALQS P0006 60010 T01450145 10269 20145
K5A6 212335Z AUTO 01009G14KT 10SM BKN011 BKN049 15/15 A3020 RMK AO2 LTG DSNT ALQS T01480148
K5A6 212315Z AUTO 03011G18KT 10SM VCTS BKN009 BKN120 15/15 A3017 RMK AO2 LTG DSNT SW THRU NW T01480148
K5A6 212255Z AUTO 03011G16KT 10SM BKN009 15/15 A3019 RMK AO2 LTG DSNT W T01500150
K5A6 212235Z AUTO 02011KT 10SM TS BKN009 BKN100 15/15 A3019 RMK AO2 T01510151
K5A6 212215Z AUTO 02011KT 10SM BKN009 BKN060 OVC090 15/15 A3019 RMK AO2 LTG DSNT SW AND W T01530153
K5A6 212155Z AUTO 01008KT 10SM VCTS BKN011 BKN032 OVC110 16/16 A3018 RMK AO2 LTG DSNT SW AND W P0004 T01550155
K5A6 212135Z AUTO 01015G21KT 10SM -RA BKN011 BKN030 OVC065 16/16 A3018 RMK AO2 LTG DSNT SW AND W P0004 T01560156
K5A6 212115Z AUTO 02014G21KT 7SM +RA BKN011 BKN050 OVC075 16/16 A3020 RMK AO2 LTG DSNT NW P0002 T01640155
K5A6 212055Z AUTO 02016G22KT 10SM SCT011 BKN050 BKN060 17/16 A3017 RMK AO2 LTG DSNT SW T01720156
K5A6 212035Z AUTO 01013G17KT 10SM BKN050 BKN065 BKN085 18/16 A3019 RMK AO2 LTG DSNT W T01750160
K5A6 212015Z AUTO 36012G17KT 10SM BKN050 BKN065 OVC080 18/16 A3018 RMK AO2 LTG DSNT SW AND W T01780160
K5A6 211955Z AUTO 02016G19KT 10SM BKN049 BKN065 OVC075 18/16 A3017 RMK AO2 LTG DSNT SW AND W T01810159
K5A6 211935Z AUTO 01012G15KT 10SM BKN047 BKN055 OVC065 19/16 A3018 RMK AO2 LTG DSNT SW T01900161
K5A6 211915Z AUTO 36013G18KT 10SM BKN045 BKN060 OVC075 20/16 A3018 RMK AO2 T01970158
K5A6 211855Z AUTO 18014G18KT 10SM SCT045 SCT060 BKN075 27/18 A3018 RMK AO2 T02680175
K5A6 211835Z AUTO 17013G17KT 10SM SCT040 SCT050 SCT070 27/18 A3018 RMK AO2 T02670182
K5A6 211815Z AUTO 19011G17KT 10SM BKN038 BKN050 BKN070 26/18 A3020 RMK AO2 LTG DSNT W T02580182
K5A6 211755Z AUTO 19007KT 10SM SCT036 BKN043 OVC065 25/19 A3020 RMK AO2 T02500187 10250 20200
K5A6 211735Z AUTO 17008KT 7SM -RA SCT033 BKN039 OVC065 25/19 A3021 RMK AO2 T02460189
K5A6 211715Z AUTO 17009G17KT 10SM SCT029 BKN035 OVC080 25/19 A3023 RMK AO2 T02480186
K5A6 211655Z AUTO 17009G18KT 10SM BKN029 BKN035 OVC080 25/19 A3023 RMK AO2 T02480189
K5A6 211635Z AUTO 19013G18KT 10SM BKN029 BKN035 OVC080 25/19 A3023 RMK AO2 T02480189
K5A6 211615Z AUTO 18016G24KT 10SM SCT027 SCT032 25/19 A3023 RMK AO2 T02490190
K5A6 211555Z AUTO 16011G20KT 10SM SCT023 SCT028 24/19 A3023 RMK AO2 LTG DSNT W T02390193
K5A6 211535Z AUTO 16009G16KT 10SM BKN021 BKN027 24/20 A3023 RMK AO2 T02390197
K5A6 211515Z AUTO 17013G19KT 10SM OVC017 23/20 A3024 RMK AO2 T02290199
K5A6 211455Z AUTO 18012G18KT 10SM OVC015 23/20 A3024 RMK AO2 T02250201
K5A6 211435Z AUTO 18009G15KT 10SM OVC013 22/20 A3024 RMK AO2 T02200203
K5A6 211415Z AUTO 18008KT 10SM BKN013 BKN020 OVC070 22/20 A3024 RMK AO2 T02180204
K5A6 211355Z AUTO 17007KT 10SM SCT013 OVC070 21/21 A3024 RMK AO2 T02110206
K5A6 211335Z AUTO 17004KT 10SM SCT070 BKN095 21/21 A3024 RMK AO2 T02060205
K5A6 211315Z AUTO 17005KT 10SM SCT080 SCT095 20/20 A3023 RMK AO2 T02020202
K5A6 211255Z AUTO 16005KT 10SM CLR 20/20 A3023 RMK AO2 T02000200
K5A6 210755Z AUTO 19006KT 10SM OVC017 21/20 A3019 RMK AO2 T02050197
K5A6 210735Z AUTO 18009KT 10SM OVC019 21/20 A3018 RMK AO2 T02070197
K5A6 210715Z AUTO 18010G14KT 10SM BKN021 21/20 A3018 RMK AO2 T02080196
K5A6 210655Z AUTO 19006KT 10SM SCT021 21/20 A3018 RMK AO2 T02050195
K5A6 210635Z AUTO 18007KT 10SM CLR 21/20 A3018 RMK AO2 T02070195
K5A6 210615Z AUTO 17010G14KT 10SM CLR 21/20 A3017 RMK AO2 T02090195
K5A6 210555Z AUTO 18010KT 10SM CLR 21/20 A3017 RMK AO2 T02100195 10243 20210 402600171